Time;durP1;ratioP1;P1;durP2;ratioP2;P2;SDS_P1;SDS_P2;PMS_P1;PMS_P2;Temp;Humidity;BMP_temperature;BMP_pressure;BME280_temperature;BME280_humidity;BME280_pressure;Samples;Min_cycle;Max_cycle;Signal;HPM_P1;HPM_P2
2022/12/07 00:02:14;;;;;;;9.60;2.05;;;;;;;11.39;60.87;101797.19;5072894;28;20032;-71
2022/12/07 00:04:39;;;;;;;9.27;1.73;;;;;;;10.99;61.85;101794.66;5074282;28;20100;-73
2022/12/07 00:07:05;;;;;;;9.40;1.88;;;;;;;11.34;60.75;101793.47;5074666;28;20158;-71
2022/12/07 00:09:30;;;;;;;9.25;2.22;;;;;;;11.62;59.78;101791.38;5073979;28;20131;-72
2022/12/07 00:11:56;;;;;;;3.17;1.67;;;;;;;11.50;60.31;101784.94;5072936;28;20042;-72
2022/12/07 00:14:21;;;;;;;6.22;1.90;;;;;;;11.28;60.85;101788.91;5073812;28;20036;-71
2022/12/07 00:16:50;;;;;;;3.75;1.70;;;;;;;11.26;61.77;101789.09;5073601;28;20127;-73
2022/12/07 00:19:15;;;;;;;7.55;1.40;;;;;;;11.45;61.13;101784.75;5074159;28;20024;-71
2022/12/07 00:21:41;;;;;;;9.52;2.00;;;;;;;11.61;60.32;101783.50;5074060;28;20463;-71
2022/12/07 00:24:06;;;;;;;5.72;2.15;;;;;;;11.50;60.64;101777.72;5073816;28;20063;-72
2022/12/07 00:26:35;;;;;;;14.95;2.45;;;;;;;11.63;59.87;101774.19;5073801;28;20040;-72
2022/12/07 00:29:05;;;;;;;7.38;1.90;;;;;;;11.66;59.61;101768.41;5073462;28;20041;-70
2022/12/07 00:31:34;;;;;;;7.47;1.77;;;;;;;11.47;59.28;101774.63;5074201;28;20044;-72
2022/12/07 00:34:00;;;;;;;9.40;1.92;;;;;;;11.55;59.10;101778.94;5074387;28;20028;-73
2022/12/07 00:36:26;;;;;;;7.95;1.63;;;;;;;11.64;59.12;101775.00;5058699;28;20394;-71
2022/12/07 00:38:52;;;;;;;7.60;1.85;;;;;;;11.11;60.25;101771.50;5053757;28;20095;-72
2022/12/07 00:41:20;;;;;;;5.50;1.50;;;;;;;11.26;59.95;101778.34;5053662;28;20055;-72
2022/12/07 00:43:46;;;;;;;5.82;1.73;;;;;;;11.25;59.94;101768.63;5065291;28;20055;-72
2022/12/07 00:46:13;;;;;;;8.02;1.73;;;;;;;11.29;59.73;101772.56;5073904;28;20033;-72
2022/12/07 00:48:39;;;;;;;6.10;1.50;;;;;;;10.95;60.41;101770.03;5073578;28;20036;-70
2022/12/07 00:51:05;;;;;;;7.50;1.85;;;;;;;11.33;59.69;101773.78;5073012;28;20154;-70
2022/12/07 00:53:33;;;;;;;9.75;1.92;;;;;;;10.97;60.77;101773.34;5073260;28;20496;-71
2022/12/07 00:56:05;;;;;;;4.80;1.45;;;;;;;10.71;61.37;101778.69;5073188;28;20086;-71
2022/12/07 00:58:30;;;;;;;9.70;2.17;;;;;;;10.57;61.17;101772.44;5073065;28;20028;-72
2022/12/07 01:00:59;;;;;;;10.55;2.03;;;;;;;10.95;60.93;101766.50;5073572;28;20538;-72
2022/12/07 01:03:25;;;;;;;13.80;1.77;;;;;;;11.15;60.09;101762.81;5072300;28;20067;-72
2022/12/07 01:05:55;;;;;;;9.35;1.77;;;;;;;10.76;60.81;101756.56;5073078;28;20119;-72
2022/12/07 01:08:22;;;;;;;7.53;1.93;;;;;;;10.94;60.53;101760.31;5073027;28;20056;-72
2022/12/07 01:10:48;;;;;;;9.65;2.35;;;;;;;10.35;61.47;101768.25;5073240;28;20480;-72
2022/12/07 01:13:15;;;;;;;10.60;1.80;;;;;;;10.51;61.38;101765.16;5073290;28;20036;-72
2022/12/07 01:15:44;;;;;;;8.30;2.78;;;;;;;10.73;60.53;101765.84;5073088;28;20040;-72
2022/12/07 01:18:10;;;;;;;8.98;2.30;;;;;;;10.65;60.75;101757.16;5072908;28;20448;-71
2022/12/07 01:20:36;;;;;;;3.13;1.30;;;;;;;11.11;59.02;101766.13;5072706;28;20116;-72
2022/12/07 01:23:03;;;;;;;9.02;2.00;;;;;;;11.22;58.49;101758.25;5072717;28;20067;-72
2022/12/07 01:25:28;;;;;;;7.88;1.48;;;;;;;11.15;58.93;101764.66;5073040;28;20052;-72
2022/12/07 01:27:54;;;;;;;3.92;1.30;;;;;;;10.76;60.67;101759.25;5072993;28;20542;-71
2022/12/07 01:30:19;;;;;;;8.02;1.75;;;;;;;11.17;59.22;101759.91;5072598;28;20120;-72
2022/12/07 01:32:44;;;;;;;5.10;1.50;;;;;;;10.99;59.31;101759.69;5072764;28;20090;-72
2022/12/07 01:35:10;;;;;;;8.70;1.88;;;;;;;10.93;59.48;101764.03;5072395;28;20035;-74
2022/12/07 01:37:37;;;;;;;6.22;1.77;;;;;;;11.22;58.55;101760.13;5072380;28;20043;-72
2022/12/07 01:40:05;;;;;;;6.05;1.85;;;;;;;11.09;59.18;101760.13;5071281;28;20037;-72
2022/12/07 01:42:30;;;;;;;5.25;1.50;;;;;;;11.15;58.94;101767.38;5072305;28;20400;-72
2022/12/07 01:45:18;;;;;;;5.65;1.98;;;;;;;11.20;58.73;101763.00;5072259;28;20135;-72
2022/12/07 01:47:50;;;;;;;9.07;1.50;;;;;;;10.81;59.61;101762.97;5072305;28;20051;-73
2022/12/07 01:50:15;;;;;;;13.10;1.58;;;;;;;11.08;59.10;101761.16;5072193;28;20037;-72
2022/12/07 01:52:43;;;;;;;4.85;1.52;;;;;;;10.88;59.31;101752.25;5072077;28;20039;-72
2022/12/07 01:55:12;;;;;;;6.35;1.90;;;;;;;10.83;59.34;101760.91;5072393;28;20036;-73
2022/12/07 01:57:42;;;;;;;15.95;2.20;;;;;;;11.04;58.21;101762.59;5072211;28;20040;-72
2022/12/07 02:00:09;;;;;;;12.82;1.33;;;;;;;10.98;58.48;101760.72;5072038;28;20109;-72
2022/12/07 02:02:42;;;;;;;5.95;1.80;;;;;;;10.83;59.42;101766.28;5071864;28;20409;-73
2022/12/07 02:05:07;;;;;;;11.85;2.38;;;;;;;11.03;58.56;101759.09;5072121;28;20111;-72
2022/12/07 02:07:37;;;;;;;17.85;2.13;;;;;;;10.33;60.61;101764.94;5071764;28;20111;-72
2022/12/07 02:10:32;;;;;;;17.63;3.38;;;;;;;10.82;59.71;101764.66;5072263;28;20436;-72
2022/12/07 02:13:02;;;;;;;9.00;2.63;;;;;;;10.70;60.42;101770.81;4990106;28;20066;-73
2022/12/07 02:15:56;;;;;;;12.65;2.42;;;;;;;11.10;58.94;101764.47;4985868;28;20031;-71
2022/12/07 02:18:40;;;;;;;8.63;1.98;;;;;;;10.71;60.30;101761.72;4970558;28;20035;-72
2022/12/07 02:21:34;;;;;;;10.85;2.13;;;;;;;11.07;59.91;101764.88;4970743;28;20038;-71
2022/12/07 02:24:14;;;;;;;6.72;1.95;;;;;;;10.69;61.02;101771.84;4970862;28;20085;-73
2022/12/07 02:27:04;;;;;;;9.95;1.65;;;;;;;11.14;59.53;101760.34;4970255;28;20043;-72
2022/12/07 02:30:08;;;;;;;13.05;1.83;;;;;;;11.34;58.69;101759.28;4950902;29;20090;-72
2022/12/07 02:32:52;;;;;;;14.77;1.27;;;;;;;11.29;59.66;101764.47;4989730;28;20120;-71
2022/12/07 02:35:23;;;;;;;13.48;1.52;;;;;;;11.77;58.44;101750.78;5003765;28;20049;-71
2022/12/07 02:37:58;;;;;;;9.13;2.00;;;;;;;11.91;57.91;101745.13;4989373;28;20441;-73
2022/12/07 02:40:37;;;;;;;18.70;2.65;;;;;;;11.74;57.99;101737.72;4989403;28;20555;-72
2022/12/07 02:43:22;;;;;;;6.72;1.58;;;;;;;11.41;59.45;101735.06;4989767;28;20065;-73
2022/12/07 02:45:49;;;;;;;10.75;1.48;;;;;;;10.84;61.71;101741.06;4989445;28;20422;-74
2022/12/07 02:48:18;;;;;;;15.75;1.65;;;;;;;10.81;61.75;101737.97;4991406;28;20573;-72
2022/12/07 02:50:54;;;;;;;5.93;1.90;;;;;;;11.47;59.86;101737.78;5071169;28;20036;-72
2022/12/07 02:53:37;;;;;;;12.05;1.55;;;;;;;11.98;58.42;101737.06;5071211;28;20047;-73
2022/12/07 02:56:07;;;;;;;10.77;1.95;;;;;;;11.98;57.79;101737.06;5069274;28;20055;-72
2022/12/07 02:59:02;;;;;;;10.82;1.52;;;;;;;12.05;57.59;101744.06;5071008;28;20406;-72
2022/12/07 03:01:39;;;;;;;15.15;1.70;;;;;;;12.17;57.83;101742.38;5070760;28;20025;-71
2022/12/07 03:04:28;;;;;;;11.13;1.58;;;;;;;11.77;58.64;101737.31;5071490;28;20038;-72
2022/12/07 03:06:59;;;;;;;10.02;1.20;;;;;;;11.83;58.19;101745.38;5070922;28;20514;-72
2022/12/07 03:09:36;;;;;;;8.32;1.60;;;;;;;11.83;58.47;101745.38;5070491;28;20082;-73
2022/12/07 03:12:12;;;;;;;12.60;1.92;;;;;;;11.54;59.60;101740.44;5070374;28;20404;-72
2022/12/07 03:14:49;;;;;;;5.82;1.20;;;;;;;11.56;59.90;101753.72;5070661;28;20508;-72
2022/12/07 03:17:25;;;;;;;6.80;1.13;;;;;;;11.58;59.79;101748.94;5049026;28;20555;-71
2022/12/07 03:19:53;;;;;;;4.30;1.15;;;;;;;11.43;59.45;101741.06;5050439;28;20167;-72
2022/12/07 03:22:20;;;;;;;8.27;1.58;;;;;;;11.41;60.55;101749.38;5049951;28;20083;-72
2022/12/07 03:24:54;;;;;;;6.50;1.90;;;;;;;11.56;59.72;101742.94;5050867;28;20155;-72
2022/12/07 03:27:31;;;;;;;15.23;1.75;;;;;;;11.32;60.30;101747.09;5051704;28;20410;-71
2022/12/07 03:30:14;;;;;;;7.82;1.20;;;;;;;11.88;58.35;101742.88;5070310;28;20127;-73
2022/12/07 03:32:43;;;;;;;13.00;1.30;;;;;;;11.57;58.87;101737.34;5056841;28;20115;-71
2022/12/07 03:35:22;;;;;;;10.70;1.80;;;;;;;11.84;57.92;101738.13;5050426;28;20469;-72
2022/12/07 03:38:11;;;;;;;7.68;1.65;;;;;;;11.67;58.41;101736.94;5050123;28;20025;-72
2022/12/07 03:40:45;;;;;;;8.43;1.63;;;;;;;11.50;58.92;101739.19;5050549;28;20049;-71
2022/12/07 03:43:11;;;;;;;4.15;0.93;;;;;;;11.60;58.31;101731.53;5059383;28;20046;-73
2022/12/07 03:45:41;;;;;;;8.85;1.27;;;;;;;11.63;58.24;101722.22;5068803;28;20047;-72
2022/12/07 03:48:26;;;;;;;8.48;1.23;;;;;;;11.59;57.99;101731.75;5070225;28;20043;-73
2022/12/07 03:51:22;;;;;;;3.85;0.90;;;;;;;11.42;58.74;101732.16;5070051;28;20036;-72
2022/12/07 03:53:58;;;;;;;7.43;1.13;;;;;;;11.68;57.99;101722.41;5070297;28;20239;-72
2022/12/07 03:56:25;;;;;;;14.95;1.92;;;;;;;11.50;58.00;101720.34;5070408;28;20044;-72
2022/12/07 03:58:53;;;;;;;13.95;1.55;;;;;;;10.95;60.29;101723.47;5070312;28;20036;-73
2022/12/07 04:01:18;;;;;;;10.25;2.03;;;;;;;10.18;63.72;101728.50;5068686;28;20029;-73
2022/12/07 04:03:44;;;;;;;16.40;1.75;;;;;;;11.45;58.57;101721.00;5070529;28;20111;-71
2022/12/07 04:06:09;;;;;;;9.68;1.23;;;;;;;11.83;57.58;101721.13;5070363;28;20053;-71
2022/12/07 04:08:34;;;;;;;13.50;1.90;;;;;;;11.47;58.58;101718.94;5069725;28;20043;-70
2022/12/07 04:11:00;;;;;;;14.90;1.98;;;;;;;11.63;57.94;101723.03;5070035;28;20417;-72
2022/12/07 04:13:26;;;;;;;4.60;1.38;;;;;;;11.64;57.39;101721.16;5070153;28;20035;-72
2022/12/07 04:15:51;;;;;;;9.32;3.08;;;;;;;11.60;57.12;101712.69;5062566;28;20504;-70
2022/12/07 04:18:16;;;;;;;10.00;2.10;;;;;;;11.50;57.61;101723.03;5049824;28;20051;-72
2022/12/07 04:20:42;;;;;;;7.60;1.17;;;;;;;11.48;57.43;101722.44;5049913;28;20064;-72
2022/12/07 04:23:07;;;;;;;7.18;1.73;;;;;;;11.28;57.04;101718.97;5049862;28;20037;-71
2022/12/07 04:25:32;;;;;;;6.00;1.10;;;;;;;11.42;56.73;101709.81;5049762;28;20040;-73
2022/12/07 04:27:58;;;;;;;5.60;1.58;;;;;;;11.26;56.61;101711.06;5049789;28;20035;-72
2022/12/07 04:30:23;;;;;;;3.47;1.13;;;;;;;11.12;57.06;101727.44;5049943;28;20068;-71
2022/12/07 04:32:48;;;;;;;5.88;1.42;;;;;;;11.18;56.64;101724.72;5049777;28;20041;-72
2022/12/07 04:35:14;;;;;;;4.80;1.17;;;;;;;11.12;56.69;101722.06;5049782;28;20564;-71
2022/12/07 04:37:39;;;;;;;6.35;1.08;;;;;;;10.95;58.05;101718.94;5050945;28;20036;-73
2022/12/07 04:40:10;;;;;;;5.70;1.55;;;;;;;11.01;57.67;101717.28;5054131;28;20472;-72
2022/12/07 04:42:36;;;;;;;7.55;1.20;;;;;;;10.95;57.82;101723.47;5031330;28;20026;-72
2022/12/07 04:45:02;;;;;;;7.40;2.03;;;;;;;10.63;59.15;101716.22;5033498;28;20128;-73
2022/12/07 04:47:27;;;;;;;8.68;1.27;;;;;;;11.01;57.49;101712.75;5033395;28;20049;-71
2022/12/07 04:49:53;;;;;;;10.43;1.45;;;;;;;10.98;57.96;101729.31;5033216;28;20438;-72
2022/12/07 04:52:18;;;;;;;14.73;1.38;;;;;;;11.17;57.80;101720.41;5033336;28;20071;-73
2022/12/07 04:54:43;;;;;;;5.18;0.88;;;;;;;11.21;57.50;101718.13;5015363;28;20048;-73
2022/12/07 04:57:09;;;;;;;7.32;2.13;;;;;;;10.80;59.61;101723.69;5050172;28;20037;-72
2022/12/07 04:59:34;;;;;;;16.23;2.28;;;;;;;11.00;59.19;101716.47;5053529;28;20116;-73
2022/12/07 05:01:59;;;;;;;5.57;1.38;;;;;;;9.33;65.05;101723.47;5041510;28;20046;-72
2022/12/07 05:04:25;;;;;;;4.10;1.35;;;;;;;9.69;65.34;101718.72;5032821;28;20037;-72
2022/12/07 05:06:50;;;;;;;5.38;0.80;;;;;;;10.26;62.57;101712.22;5032892;28;20025;-72
2022/12/07 05:09:15;;;;;;;5.78;1.23;;;;;;;10.58;61.75;101711.44;5032428;28;20044;-72
2022/12/07 05:11:41;;;;;;;10.80;1.58;;;;;;;11.03;59.98;101707.16;5052303;28;20033;-74
2022/12/07 05:14:18;;;;;;;5.57;1.30;;;;;;;10.91;60.51;101715.00;5040870;28;20033;-73
2022/12/07 05:16:45;;;;;;;5.07;1.27;;;;;;;10.05;62.72;101714.97;5050323;28;20053;-76
2022/12/07 05:19:12;;;;;;;14.43;1.98;;;;;;;10.87;60.46;101707.56;5054350;28;20044;-73
2022/12/07 05:21:38;;;;;;;4.43;0.98;;;;;;;11.30;58.92;101708.81;5053700;28;20048;-73
2022/12/07 05:24:04;;;;;;;4.05;1.20;;;;;;;11.29;58.80;101707.97;5053010;28;20128;-74
2022/12/07 05:26:30;;;;;;;22.23;1.77;;;;;;;11.54;57.89;101710.81;5053635;28;20033;-72
2022/12/07 05:28:56;;;;;;;7.53;2.03;;;;;;;11.55;57.76;101709.81;5053708;28;20052;-73
2022/12/07 05:31:23;;;;;;;8.30;1.48;;;;;;;11.68;56.94;101701.72;5053628;28;20086;-74
2022/12/07 05:33:49;;;;;;;8.25;1.73;;;;;;;11.58;57.24;101703.19;5053941;28;20033;-73
2022/12/07 05:36:14;;;;;;;10.35;1.73;;;;;;;11.39;57.81;101700.31;5053521;28;20040;-72
2022/12/07 05:38:40;;;;;;;9.60;1.33;;;;;;;11.48;57.20;101699.03;5053468;28;20084;-73
2022/12/07 05:41:07;;;;;;;9.07;1.40;;;;;;;11.45;57.08;101699.47;5052933;28;20087;-74
2022/12/07 05:43:33;;;;;;;14.65;2.80;;;;;;;11.31;57.43;101705.06;5052640;28;20051;-73
2022/12/07 05:45:58;;;;;;;10.65;1.63;;;;;;;11.33;56.85;101703.84;5052674;28;20033;-73
2022/12/07 05:48:24;;;;;;;11.68;2.03;;;;;;;11.22;56.86;101700.94;5051836;28;20083;-72
2022/12/07 05:50:51;;;;;;;11.60;1.60;;;;;;;11.12;57.22;101701.38;5052311;28;20041;-72
2022/12/07 05:53:16;;;;;;;13.32;1.45;;;;;;;10.99;57.62;101700.53;5052228;28;20061;-72
2022/12/07 05:55:42;;;;;;;11.48;2.38;;;;;;;10.92;58.06;101700.53;5051872;28;20396;-72
2022/12/07 06:00:51;;;;;;;16.40;2.42;;;;;;;11.00;57.58;101697.66;5048409;28;20048;-74
2022/12/07 06:03:16;;;;;;;3.70;1.27;;;;;;;10.91;57.42;101690.81;5051683;28;20037;-73
2022/12/07 06:05:42;;;;;;;5.97;1.52;;;;;;;10.95;57.15;101692.03;5051823;28;20021;-72
2022/12/07 06:08:07;;;;;;;14.20;1.80;;;;;;;11.04;56.77;101695.38;5051743;28;20033;-73
2022/12/07 06:10:33;;;;;;;14.43;1.77;;;;;;;11.04;57.01;101695.38;5050847;28;20040;-72
2022/12/07 06:12:58;;;;;;;4.97;2.20;;;;;;;11.02;56.78;101694.75;5051570;28;20024;-72
2022/12/07 06:15:23;;;;;;;12.10;2.20;;;;;;;10.92;57.25;101692.47;5047584;28;20113;-73
2022/12/07 06:17:49;;;;;;;12.25;1.80;;;;;;;10.90;56.81;101693.72;5061242;28;20047;-72
2022/12/07 06:20:14;;;;;;;8.63;1.58;;;;;;;10.70;57.91;101693.69;5071081;28;20039;-72
2022/12/07 06:22:40;;;;;;;8.90;1.77;;;;;;;10.67;57.03;101698.66;5056559;28;20053;-72
2022/12/07 06:25:06;;;;;;;13.23;2.63;;;;;;;10.67;57.32;101695.97;5055625;28;20114;-73
2022/12/07 06:27:32;;;;;;;11.90;1.73;;;;;;;10.64;56.96;101694.50;5052471;28;20036;-73
2022/12/07 06:29:58;;;;;;;7.03;1.52;;;;;;;10.69;57.20;101699.28;5052424;28;20566;-73
2022/12/07 06:32:23;;;;;;;8.52;1.27;;;;;;;10.58;56.83;101706.06;5052515;28;20707;-72
2022/12/07 06:34:48;;;;;;;8.60;1.63;;;;;;;10.54;57.15;101705.66;5052264;28;20515;-73
2022/12/07 06:37:14;;;;;;;11.60;1.52;;;;;;;10.57;57.38;101702.56;5052687;28;20525;-72
2022/12/07 06:39:39;;;;;;;10.60;1.65;;;;;;;10.60;57.64;101712.06;5051923;28;20037;-71
2022/12/07 06:42:04;;;;;;;13.13;1.55;;;;;;;10.50;58.51;101712.47;5055624;28;20087;-72
2022/12/07 06:44:30;;;;;;;13.13;1.77;;;;;;;10.85;57.71;101709.66;5070379;28;20127;-73
2022/12/07 06:46:55;;;;;;;13.80;2.10;;;;;;;10.86;57.65;101716.66;5070072;28;20504;-72
2022/12/07 06:49:20;;;;;;;7.93;1.83;;;;;;;10.66;57.79;101715.81;5062927;28;20029;-73
2022/12/07 06:51:46;;;;;;;13.02;1.67;;;;;;;10.93;57.33;101717.50;5070276;28;20017;-73
2022/12/07 06:54:13;;;;;;;14.10;2.63;;;;;;;10.92;57.70;101716.69;5068297;28;20040;-71
2022/12/07 06:56:39;;;;;;;13.07;2.08;;;;;;;10.85;57.07;101710.44;5070798;28;20047;-73
2022/12/07 06:59:06;;;;;;;4.55;1.70;;;;;;;10.70;57.78;101715.19;5071183;28;20515;-72
2022/12/07 07:01:32;;;;;;;6.00;1.65;;;;;;;10.77;57.57;101712.53;5062491;28;20028;-72
2022/12/07 07:03:57;;;;;;;9.65;2.50;;;;;;;10.63;58.01;101717.06;5068934;28;20078;-72
2022/12/07 07:06:23;;;;;;;11.05;2.45;;;;;;;10.82;57.50;101713.56;5070999;28;20036;-72
2022/12/07 07:08:48;;;;;;;9.90;2.20;;;;;;;10.85;57.02;101725.78;5070662;28;20043;-74
2022/12/07 07:11:13;;;;;;;12.82;1.90;;;;;;;10.83;57.31;101719.78;5066938;28;20041;-72
2022/12/07 07:13:39;;;;;;;8.45;1.83;;;;;;;10.81;57.31;101719.97;5067390;28;20036;-70
2022/12/07 07:16:05;;;;;;;10.25;2.28;;;;;;;10.85;57.48;101721.19;5069226;28;20400;-72
2022/12/07 07:18:31;;;;;;;7.22;2.13;;;;;;;10.93;56.98;101720.19;5065380;28;20505;-70
2022/12/07 07:20:56;;;;;;;9.18;1.75;;;;;;;10.86;56.89;101727.41;5068744;28;20041;-71
2022/12/07 07:23:22;;;;;;;7.10;1.40;;;;;;;10.95;56.43;101724.31;5070632;28;20036;-70
2022/12/07 07:25:48;;;;;;;9.50;1.60;;;;;;;10.98;56.45;101723.09;5057832;28;20043;-72
2022/12/07 07:28:14;;;;;;;6.90;1.33;;;;;;;10.98;56.89;101723.94;5068459;28;20500;-69
2022/12/07 07:30:40;;;;;;;9.80;2.20;;;;;;;10.84;57.26;101722.25;5070508;28;20045;-72
2022/12/07 07:33:05;;;;;;;5.47;1.88;;;;;;;10.81;57.65;101727.22;5065010;28;20050;-71
2022/12/07 07:35:33;;;;;;;8.77;1.77;;;;;;;10.64;58.49;101729.44;5070209;28;20082;-70
2022/12/07 07:37:58;;;;;;;8.65;2.38;;;;;;;10.58;58.48;101723.03;5070710;28;20380;-70
2022/12/07 07:40:24;;;;;;;6.95;2.13;;;;;;;10.38;60.27;101730.22;5070818;28;20041;-71
2022/12/07 07:42:51;;;;;;;11.45;1.50;;;;;;;10.97;58.17;101721.41;5070848;28;20046;-70
2022/12/07 07:45:17;;;;;;;4.40;2.00;;;;;;;10.99;57.60;101724.72;5070319;28;20090;-72
2022/12/07 07:47:43;;;;;;;9.05;1.88;;;;;;;11.19;57.20;101728.25;5071024;28;20052;-71
2022/12/07 07:50:09;;;;;;;18.50;1.90;;;;;;;11.07;57.48;101733.44;5062891;28;20028;-71
2022/12/07 07:52:34;;;;;;;3.88;1.33;;;;;;;11.06;56.92;101721.03;5066201;28;20036;-70
2022/12/07 07:54:59;;;;;;;9.68;1.77;;;;;;;11.27;56.82;101717.28;5071083;28;20038;-70
2022/12/07 07:57:25;;;;;;;5.25;1.40;;;;;;;11.28;56.81;101716.25;5071069;28;20040;-71
2022/12/07 07:59:50;;;;;;;11.60;2.13;;;;;;;11.22;57.10;101723.28;5071037;28;20119;-72
2022/12/07 08:02:18;;;;;;;4.85;1.70;;;;;;;11.33;57.34;101719.97;5070979;28;20112;-71
2022/12/07 08:04:44;;;;;;;12.57;1.83;;;;;;;11.18;57.55;101727.41;5071009;28;20036;-73
2022/12/07 08:07:10;;;;;;;5.28;1.70;;;;;;;11.30;57.73;101722.25;5060147;28;20806;-73
2022/12/07 08:09:36;;;;;;;14.52;2.60;;;;;;;11.14;58.02;101720.00;5054278;28;20500;-72
2022/12/07 08:12:01;;;;;;;15.05;2.55;;;;;;;10.88;59.03;101730.72;5060366;28;20033;-72
2022/12/07 08:14:28;;;;;;;17.85;3.13;;;;;;;11.26;58.38;101724.53;5062542;28;20041;-71
2022/12/07 08:16:54;;;;;;;9.23;2.38;;;;;;;11.26;58.29;101729.09;5055601;28;20037;-71
2022/12/07 08:19:19;;;;;;;13.55;2.15;;;;;;;10.81;59.32;101733.41;5049298;28;20047;-71
2022/12/07 08:21:44;;;;;;;6.55;2.40;;;;;;;10.59;60.07;101731.94;5067034;28;20067;-72
2022/12/07 08:24:10;;;;;;;5.68;2.40;;;;;;;10.61;60.34;101727.19;5066570;28;20124;-71
2022/12/07 08:26:35;;;;;;;7.22;2.53;;;;;;;11.26;58.02;101726.41;5053197;28;20041;-72
2022/12/07 08:29:02;;;;;;;16.42;2.33;;;;;;;11.35;57.62;101733.22;5063735;28;20413;-72
2022/12/07 08:31:28;;;;;;;10.55;2.63;;;;;;;10.91;58.97;101735.72;5058679;28;20495;-72
2022/12/07 08:33:54;;;;;;;5.82;2.40;;;;;;;10.83;59.04;101735.91;5073474;28;20074;-72
2022/12/07 08:36:21;;;;;;;11.27;2.70;;;;;;;10.41;61.09;101734.38;5063664;28;20037;-72
2022/12/07 08:38:46;;;;;;;7.53;2.35;;;;;;;10.92;59.13;101740.88;5052740;28;20466;-70
2022/12/07 08:41:12;;;;;;;10.93;2.95;;;;;;;11.22;57.66;101744.81;5050939;28;20044;-72
2022/12/07 08:43:37;;;;;;;10.88;2.28;;;;;;;10.99;58.62;101744.38;5034119;28;20534;-71
2022/12/07 08:46:11;;;;;;;12.77;3.42;;;;;;;11.40;57.52;101741.47;5053587;28;20036;-71
2022/12/07 08:48:54;;;;;;;6.03;2.00;;;;;;;11.34;57.90;101745.84;5052418;28;20143;-71
2022/12/07 08:51:21;;;;;;;8.48;2.13;;;;;;;11.25;58.61;101744.41;5052915;28;20037;-71
2022/12/07 08:53:47;;;;;;;3.83;2.33;;;;;;;11.43;58.13;101739.22;5072202;28;20039;-71
2022/12/07 08:56:13;;;;;;;13.18;3.08;;;;;;;11.27;59.13;101741.50;5071077;28;20044;-71
2022/12/07 08:58:39;;;;;;;4.18;1.70;;;;;;;11.25;58.76;101736.34;5067909;28;20102;-70
2022/12/07 09:01:05;;;;;;;9.35;3.10;;;;;;;10.99;59.81;101735.47;5054719;28;20106;-71
2022/12/07 09:03:31;;;;;;;8.07;3.22;;;;;;;10.49;61.05;101729.63;5066443;28;20053;-71
2022/12/07 09:05:57;;;;;;;10.77;3.22;;;;;;;10.55;61.06;101728.00;5052573;28;20590;-72
2022/12/07 09:08:27;;;;;;;5.35;1.58;;;;;;;11.14;59.75;101720.81;5051773;28;20036;-71
2022/12/07 09:10:52;;;;;;;6.73;1.83;;;;;;;10.94;60.02;101722.69;5062508;28;20040;-74
2022/12/07 09:13:18;;;;;;;7.50;1.80;;;;;;;11.54;58.31;101720.78;5072410;28;20112;-74
2022/12/07 09:15:44;;;;;;;4.57;1.23;;;;;;;11.88;57.58;101728.59;5065409;28;20053;-72
2022/12/07 09:18:10;;;;;;;8.27;1.48;;;;;;;10.97;61.03;101721.41;5057538;28;20422;-71
2022/12/07 09:20:35;;;;;;;7.53;1.98;;;;;;;10.79;61.36;101726.59;5072108;28;20040;-71
2022/12/07 09:23:02;;;;;;;9.95;1.50;;;;;;;10.94;61.23;101733.44;5076035;28;20029;-70
2022/12/07 09:25:27;;;;;;;5.00;1.42;;;;;;;10.78;62.16;101731.13;5071153;28;20089;-70
2022/12/07 09:27:57;;;;;;;8.43;1.98;;;;;;;10.87;62.52;101737.97;5072498;28;20107;-72
2022/12/07 09:30:22;;;;;;;4.78;1.52;;;;;;;11.53;60.32;101728.03;5079465;28;20039;-73
2022/12/07 09:32:48;;;;;;;6.57;1.40;;;;;;;11.18;61.59;101732.78;5091516;28;20123;-70
2022/12/07 09:35:13;;;;;;;4.45;1.15;;;;;;;10.82;61.82;101734.22;5071731;28;20041;-71
2022/12/07 09:37:38;;;;;;;11.52;2.15;;;;;;;11.25;61.94;101735.50;5069258;28;20120;-71
2022/12/07 09:40:05;;;;;;;13.00;3.08;;;;;;;11.27;61.21;101733.44;5077344;28;20167;-72
2022/12/07 09:42:39;;;;;;;10.20;1.95;;;;;;;11.22;62.12;101736.72;5071629;28;20151;-71
2022/12/07 09:45:07;;;;;;;9.50;2.90;;;;;;;11.72;59.81;101732.56;5071270;28;20036;-71
2022/12/07 09:47:33;;;;;;;8.90;1.55;;;;;;;11.14;61.68;101731.59;5071108;28;20424;-72
2022/12/07 09:50:13;;;;;;;14.85;1.88;;;;;;;11.71;60.81;101733.63;5070003;28;20035;-70
2022/12/07 09:52:40;;;;;;;17.38;2.25;;;;;;;11.35;61.40;101731.38;5067534;28;20051;-71
2022/12/07 09:55:13;;;;;;;9.05;1.33;;;;;;;11.89;60.49;101731.06;5074017;28;21735;-71
2022/12/07 09:57:39;;;;;;;8.43;1.60;;;;;;;12.74;57.63;101732.50;5081369;28;20139;-71
2022/12/07 10:00:18;;;;;;;6.50;3.00;;;;;;;12.04;60.46;101730.81;5076552;28;20625;-71
2022/12/07 10:03:00;;;;;;;12.90;1.85;;;;;;;12.02;58.71;101724.81;5091156;28;20040;-70
2022/12/07 10:05:40;;;;;;;6.88;1.75;;;;;;;11.86;60.41;101728.81;5084459;28;20040;-72
2022/12/07 10:08:10;;;;;;;13.65;1.73;;;;;;;11.69;60.13;101733.00;5090999;28;20028;-70
2022/12/07 10:10:39;;;;;;;6.05;2.20;;;;;;;11.53;60.34;101728.03;5091418;28;20054;-71
2022/12/07 10:13:08;;;;;;;7.97;2.13;;;;;;;11.48;60.28;101719.72;5077830;28;20032;-72
2022/12/07 10:15:48;;;;;;;5.53;1.40;;;;;;;12.15;57.43;101720.19;5070055;28;20047;-71
2022/12/07 10:18:38;;;;;;;11.57;2.08;;;;;;;12.31;57.45;101711.63;5068388;28;20449;-73
2022/12/07 10:21:09;;;;;;;8.93;2.00;;;;;;;11.70;59.01;101712.28;5052635;28;20043;-71
2022/12/07 10:23:36;;;;;;;11.38;1.20;;;;;;;11.69;59.71;101714.16;5070724;28;20488;-74
2022/12/07 10:26:28;;;;;;;4.18;1.55;;;;;;;12.51;57.77;101714.22;5070698;28;20028;-73
2022/12/07 10:28:53;;;;;;;6.90;1.67;;;;;;;11.71;59.60;101703.16;5070541;28;20043;-73
2022/12/07 10:31:21;;;;;;;10.38;1.80;;;;;;;12.18;58.95;101703.63;5070724;28;20024;-73
2022/12/07 10:33:53;;;;;;;12.75;2.17;;;;;;;12.00;59.65;101702.66;5052658;28;20124;-74
2022/12/07 10:36:23;;;;;;;16.35;1.63;;;;;;;12.58;57.51;101698.00;5068393;28;20508;-74
2022/12/07 10:39:12;;;;;;;10.30;1.50;;;;;;;12.30;58.00;101692.97;5081365;28;20040;-72
2022/12/07 10:41:56;;;;;;;7.75;1.40;;;;;;;11.83;60.15;101690.72;5084397;28;20040;-72
2022/12/07 10:44:24;;;;;;;3.92;1.42;;;;;;;12.49;57.72;101691.19;5084777;28;20040;-73
2022/12/07 10:47:04;;;;;;;14.73;2.70;;;;;;;11.64;59.98;101691.53;5080109;28;20094;-71
2022/12/07 10:49:41;;;;;;;11.60;2.17;;;;;;;12.37;58.35;101677.59;5083593;28;20495;-73
2022/12/07 10:52:26;;;;;;;14.02;1.75;;;;;;;12.38;58.28;101669.28;5071745;28;20385;-72
2022/12/07 10:55:12;;;;;;;10.38;1.38;;;;;;;12.03;59.17;101675.28;5066818;28;20036;-75
2022/12/07 10:57:56;;;;;;;10.13;2.15;;;;;;;12.19;58.37;101672.09;5069265;28;20094;-72
2022/12/07 11:00:24;;;;;;;12.88;2.08;;;;;;;11.77;59.83;101670.00;5069910;28;20039;-73
2022/12/07 11:03:17;;;;;;;7.93;2.03;;;;;;;12.15;59.07;101670.88;5066615;28;20048;-74
2022/12/07 11:06:03;;;;;;;4.30;1.27;;;;;;;12.14;59.16;101672.75;5070226;28;20037;-74
2022/12/07 11:08:51;;;;;;;5.00;1.02;;;;;;;12.11;59.04;101664.25;5071378;28;20130;-72
2022/12/07 11:11:30;;;;;;;5.28;1.35;;;;;;;11.57;60.01;101671.91;5079742;28;20040;-76
2022/12/07 11:14:27;;;;;;;5.57;1.42;;;;;;;12.46;58.42;101665.50;5064684;28;20068;-76
2022/12/07 11:17:14;;;;;;;8.20;1.50;;;;;;;12.93;57.34;101662.22;4972095;28;20039;-73
2022/12/07 11:20:16;;;;;;;13.93;3.50;;;;;;;13.86;55.28;101653.00;4987243;28;20568;-74
2022/12/07 11:23:20;;;;;;;11.18;1.67;;;;;;;13.27;56.88;101657.41;4988419;28;20038;-72
2022/12/07 11:26:06;;;;;;;8.35;1.25;;;;;;;12.36;58.38;101652.50;4975903;28;20561;-73
2022/12/07 11:29:02;;;;;;;10.50;1.55;;;;;;;12.80;58.79;101654.25;4986977;28;20042;-73
2022/12/07 11:31:36;;;;;;;10.65;2.75;;;;;;;12.92;57.53;101652.50;4976994;28;20042;-73
2022/12/07 11:34:20;;;;;;;6.78;2.17;;;;;;;12.74;58.24;101651.59;4964905;28;20499;-72
2022/12/07 11:36:51;;;;;;;3.22;1.50;;;;;;;12.37;59.81;101642.53;4967138;28;20054;-73
2022/12/07 11:39:26;;;;;;;;;;;;;;;12.87;59.34;101633.47;4964969;28;20150;-73